Date,TemperatureHighF,TemperatureAvgF,TemperatureLowF,DewpointHighF,DewpointAvgF,DewpointLowF,HumidityHigh,HumidityAvg,HumidityLow,PressureMaxIn,PressureMinIn,WindSpeedMaxMPH,WindSpeedAvgMPH,GustSpeedMaxMPH,PrecipitationSumIn
2013-5-1,87.5,69.0,48.7,46.3,29.7,16.0,72,29,9,0.00,0.00,10,4,21,0.00
2013-5-2,91.1,65.6,40.0,45.6,37.3,24.1,92,49,11,0.00,0.00,6,2,14,0.00
2013-5-3,89.9,65.9,40.7,53.8,44.0,37.7,89,52,20,0.00,0.00,7,3,14,0.00
2013-5-4,87.7,60.3,41.2,52.6,46.8,39.0,93,67,22,0.00,0.00,10,3,22,0.00
2013-5-5,65.1,58.2,52.6,50.3,48.9,47.9,86,72,59,0.00,0.00,13,5,28,0.00
2013-5-6,71.2,59.3,49.2,52.2,49.8,46.6,92,72,45,0.00,0.00,7,2,17,0.00
2013-5-7,72.9,59.8,48.4,54.0,50.6,46.0,93,74,46,0.00,0.00,9,3,17,0.00
2013-5-8,64.8,54.4,49.0,53.2,49.3,46.3,94,83,64,0.00,0.00,8,3,15,0.00
2013-5-9,69.1,55.7,45.0,53.0,48.7,43.0,94,79,56,0.00,0.00,9,3,15,0.00
2013-5-10,72.8,56.3,47.3,56.8,50.2,45.3,95,81,54,0.00,0.00,8,3,16,0.00
2013-5-11,80.8,58.9,46.8,60.0,50.8,45.0,95,78,41,0.00,0.00,8,3,14,0.00
2013-5-12,81.5,59.1,47.2,60.8,50.9,46.0,96,78,40,0.00,0.00,9,4,14,0.00
2013-5-13,83.5,60.7,47.6,61.7,52.6,46.1,96,77,47,0.00,0.00,9,3,15,0.00
2013-5-14,80.4,62.1,46.4,55.1,49.3,43.7,92,66,40,0.00,0.00,8,4,14,0.01
2013-5-15,80.0,59.4,40.5,50.4,45.0,38.4,93,64,32,0.00,0.00,6,2,14,0.00
2013-5-16,75.3,62.7,50.9,53.2,48.6,44.7,88,63,38,0.00,0.00,12,4,26,0.00
2013-5-17,73.5,57.0,39.6,48.6,43.8,37.6,94,66,34,0.00,0.00,8,3,17,0.00
2013-5-18,84.0,61.0,38.1,49.1,43.3,36.2,93,59,27,0.00,0.00,9,3,19,0.00
2013-5-19,86.2,64.8,42.9,51.5,43.8,38.1,89,54,20,0.00,0.00,8,3,17,0.00
2013-5-20,89.4,65.1,45.9,53.8,45.8,38.0,90,59,18,0.00,0.00,9,4,16,0.00
2013-5-21,76.6,59.6,44.2,48.9,41.7,31.4,92,58,20,0.00,0.00,11,4,23,0.00
2013-5-22,72.6,58.1,45.0,39.9,33.0,26.6,71,41,20,0.00,0.00,10,6,23,0.00
2013-5-23,74.9,56.4,37.1,44.6,38.9,34.0,90,58,26,0.00,0.00,9,3,16,0.00
2013-5-24,77.5,56.2,35.1,46.8,41.1,32.9,92,63,29,0.00,0.00,7,2,13,0.00
2013-5-25,76.7,57.7,39.0,47.9,42.9,37.0,94,63,32,0.00,0.00,6,3,15,0.00
2013-5-26,76.0,61.0,48.1,52.4,47.9,44.0,89,65,38,0.00,0.00,10,4,22,0.00
2013-5-27,65.2,55.8,45.8,56.0,50.4,42.4,93,82,64,0.00,0.00,6,2,15,0.00
2013-5-28,75.4,62.8,53.5,58.8,53.9,49.2,95,75,48,0.00,0.00,8,3,16,0.00
2013-5-29,78.8,64.8,50.8,55.4,51.3,45.6,86,64,38,0.00,0.00,8,3,16,0.00
2013-5-30,83.9,61.6,40.0,51.2,45.0,38.1,94,61,23,0.00,0.00,7,2,16,0.00
2013-5-31,89.8,66.4,44.0,55.5,46.8,41.4,93,57,19,0.00,0.00,7,2,14,0.00